Time;durP1;ratioP1;P1;durP2;ratioP2;P2;SDS_P1;SDS_P2;PMS_P1;PMS_P2;Temp;Humidity;BMP_temperature;BMP_pressure;BME280_temperature;BME280_humidity;BME280_pressure;Samples;Min_cycle;Max_cycle;Signal;HPM_P1;HPM_P2
2023/02/20 00:02:13;;;;;;;0.20;0.20;;;;;;;6.53;77.07;98483.78;6298395;28;20228;-38
2023/02/20 00:05:16;;;;;;;0.77;0.57;;;;;;;6.48;77.02;98491.50;6298221;28;20367;-38
2023/02/20 00:08:18;;;;;;;1.23;0.30;;;;;;;6.51;77.20;98495.59;6296777;28;20228;-38
2023/02/20 00:11:20;;;;;;;0.40;0.37;;;;;;;6.55;77.23;98507.41;6296201;28;20229;-38
2023/02/20 00:14:22;;;;;;;1.60;0.33;;;;;;;6.46;77.79;98510.22;6301727;28;20602;-38
2023/02/20 00:17:24;;;;;;;0.43;0.20;;;;;;;6.36;77.71;98488.59;6302279;28;20300;-39
2023/02/20 00:20:26;;;;;;;0.67;0.50;;;;;;;6.15;77.47;98486.81;6294805;28;20226;-38
2023/02/20 00:23:31;;;;;;;0.73;0.60;;;;;;;6.29;77.45;98506.25;6290365;28;20256;-38
2023/02/20 00:26:33;;;;;;;0.93;0.60;;;;;;;6.22;77.06;98502.75;6294818;28;20241;-37
2023/02/20 00:29:35;;;;;;;0.60;0.60;;;;;;;6.15;77.69;98501.88;6279378;28;20268;-37
2023/02/20 00:32:37;;;;;;;0.93;0.77;;;;;;;6.03;77.37;98498.13;6276688;28;1244173;-38
2023/02/20 00:35:39;;;;;;;1.33;0.80;;;;;;;5.93;77.51;98501.09;6311938;28;20252;-38
2023/02/20 00:38:43;;;;;;;0.67;0.60;;;;;;;6.01;77.56;98508.06;6329874;28;20249;-38
2023/02/20 00:41:45;;;;;;;0.60;0.60;;;;;;;6.06;77.46;98492.44;6330221;28;20220;-37
2023/02/20 00:44:48;;;;;;;0.60;0.60;;;;;;;6.11;77.46;98504.09;6328552;28;20274;-37
2023/02/20 00:47:50;;;;;;;0.80;0.70;;;;;;;6.17;77.54;98513.91;6328644;27;20236;-37
2023/02/20 00:50:52;;;;;;;1.03;0.63;;;;;;;6.19;77.73;98513.69;6328264;27;20235;-37
2023/02/20 00:53:54;;;;;;;0.70;0.70;;;;;;;5.97;77.44;98483.03;6331570;27;20221;-37
2023/02/20 00:56:56;;;;;;;2.10;0.80;;;;;;;6.23;77.70;98522.06;6330074;27;20319;-38
2023/02/20 00:59:58;;;;;;;0.83;0.67;;;;;;;6.23;77.75;98500.91;6326298;27;20236;-38
2023/02/20 01:03:00;;;;;;;0.87;0.87;;;;;;;6.24;77.53;98510.47;6314084;28;20238;-37
2023/02/20 01:06:02;;;;;;;0.80;0.80;;;;;;;6.29;77.55;98503.59;6332671;27;20638;-38
2023/02/20 01:09:04;;;;;;;1.10;1.00;;;;;;;5.86;77.23;98471.94;6335890;27;20215;-37
2023/02/20 01:12:07;;;;;;;2.13;1.00;;;;;;;6.03;77.44;98482.25;6314486;27;20197;-38
2023/02/20 01:15:11;;;;;;;0.90;0.90;;;;;;;6.16;77.44;98514.91;6323629;28;20205;-38
2023/02/20 01:18:13;;;;;;;0.90;0.80;;;;;;;6.08;77.00;98499.19;6330555;27;20303;-37
2023/02/20 01:21:15;;;;;;;0.70;0.70;;;;;;;6.01;77.24;98485.09;6311077;28;20220;-38
2023/02/20 01:24:17;;;;;;;0.80;0.80;;;;;;;6.21;77.28;98517.00;6325471;27;20221;-38
2023/02/20 01:27:21;;;;;;;1.67;0.90;;;;;;;6.29;77.59;98518.66;6322877;28;20234;-38
2023/02/20 01:30:23;;;;;;;0.80;0.80;;;;;;;6.28;77.63;98523.13;6329087;27;20377;-38
2023/02/20 01:33:27;;;;;;;0.80;0.80;;;;;;;6.29;77.88;98513.38;6329759;27;20233;-38
2023/02/20 01:36:29;;;;;;;0.80;0.80;;;;;;;6.23;77.70;98514.13;6332030;27;20254;-38
2023/02/20 01:39:31;;;;;;;2.27;0.63;;;;;;;6.25;77.88;98512.09;6304613;28;20255;-38
2023/02/20 01:42:34;;;;;;;0.60;0.60;;;;;;;6.20;77.67;98515.34;6329367;27;20261;-38
2023/02/20 01:45:38;;;;;;;0.40;0.40;;;;;;;6.22;77.58;98515.97;6329765;27;20245;-38
2023/02/20 01:48:40;;;;;;;0.60;0.60;;;;;;;6.18;77.91;98514.72;6329229;27;20232;-37
2023/02/20 01:51:49;;;;;;;0.70;0.60;;;;;;;6.22;78.06;98504.56;6329741;27;20235;-38
2023/02/20 01:55:16;;;;;;;0.90;0.50;;;;;;;6.25;78.07;98512.09;6310822;28;20974;-38
2023/02/20 01:58:38;;;;;;;0.60;0.60;;;;;;;6.05;78.12;98467.81;6305238;28;20233;-38
2023/02/20 02:01:43;;;;;;;0.93;0.90;;;;;;;6.36;78.18;98507.13;6325847;28;20240;-38
2023/02/20 02:04:47;;;;;;;1.07;0.73;;;;;;;6.16;78.01;98485.81;6328270;28;20354;-37
2023/02/20 02:07:50;;;;;;;0.50;0.50;;;;;;;6.33;78.45;98515.44;6315171;27;20231;-37
2023/02/20 02:11:05;;;;;;;0.70;0.70;;;;;;;6.20;78.54;98500.28;6309190;28;20327;-38
2023/02/20 02:14:08;;;;;;;0.60;0.60;;;;;;;6.28;78.78;98507.25;6325881;28;20237;-37
2023/02/20 02:17:46;;;;;;;0.73;0.73;;;;;;;6.07;78.64;98516.06;6287968;28;20233;-37
2023/02/20 02:21:06;;;;;;;0.47;0.47;;;;;;;6.15;78.69;98502.69;6324704;28;20307;-38
2023/02/20 02:24:17;;;;;;;0.40;0.40;;;;;;;6.22;78.03;98501.94;6313473;28;20211;-38
2023/02/20 02:27:38;;;;;;;0.53;0.53;;;;;;;6.22;77.97;98501.94;6330470;28;20244;-37
2023/02/20 02:30:52;;;;;;;0.60;0.60;;;;;;;6.27;78.22;98502.97;6329717;28;20238;-37
2023/02/20 02:34:32;;;;;;;0.40;0.40;;;;;;;6.29;78.24;98498.31;6324363;28;20224;-37
2023/02/20 02:37:57;;;;;;;0.50;0.50;;;;;;;6.32;78.27;98503.22;6310450;28;20237;-37
2023/02/20 02:41:03;;;;;;;0.70;0.60;;;;;;;6.34;78.56;98509.13;6312507;28;20237;-37
2023/02/20 02:44:20;;;;;;;0.40;0.40;;;;;;;6.09;78.44;98481.47;6328371;28;20232;-37
2023/02/20 02:47:54;;;;;;;0.77;0.57;;;;;;;6.26;78.63;98519.06;6303489;28;20243;-37
2023/02/20 02:51:15;;;;;;;3.40;3.10;;;;;;;6.18;78.11;98507.59;6297034;28;20302;-37
2023/02/20 02:54:21;;;;;;;5.73;3.80;;;;;;;6.06;77.78;98508.31;6322741;28;20646;-37
2023/02/20 02:57:25;;;;;;;4.30;3.73;;;;;;;5.93;77.58;98516.97;6310135;28;20643;-37
2023/02/20 03:00:44;;;;;;;5.20;4.47;;;;;;;5.80;77.63;98516.81;6323978;28;20602;-37
2023/02/20 03:03:48;;;;;;;5.00;3.80;;;;;;;5.73;77.56;98511.50;6325739;28;20610;-37
2023/02/20 03:06:55;;;;;;;5.70;4.10;;;;;;;5.61;77.37;98503.22;6324754;28;20241;-37
2023/02/20 03:10:06;;;;;;;5.50;4.63;;;;;;;5.47;77.43;98501.50;6326531;28;20276;-38
2023/02/20 03:13:11;;;;;;;8.47;5.20;;;;;;;5.29;77.77;98503.75;6328659;27;20222;-38
2023/02/20 03:16:20;;;;;;;5.27;4.77;;;;;;;5.17;78.73;98504.25;6328283;28;20231;-38
2023/02/20 03:19:28;;;;;;;7.53;5.13;;;;;;;5.16;78.95;98505.22;6331110;28;20247;-38
2023/02/20 03:22:54;;;;;;;5.73;5.17;;;;;;;5.20;78.97;98505.69;6309769;28;20317;-37
2023/02/20 03:26:16;;;;;;;5.10;4.60;;;;;;;5.23;79.09;98510.59;6328706;28;20324;-37
2023/02/20 03:29:36;;;;;;;6.50;4.80;;;;;;;5.26;78.91;98514.69;6322327;28;20311;-38
2023/02/20 03:46:21;;;;;;;4.70;4.30;;;;;;;5.04;78.86;98498.00;6334124;27;20231;-38
2023/02/20 03:49:30;;;;;;;5.00;4.40;;;;;;;5.09;79.10;98487.69;6330793;27;20327;-39
2023/02/20 03:52:34;;;;;;;5.77;4.70;;;;;;;5.05;79.36;98491.72;6319941;28;20286;-38
2023/02/20 03:55:36;;;;;;;5.60;5.10;;;;;;;4.98;79.02;98490.81;6314867;28;20232;-38
2023/02/20 03:58:47;;;;;;;5.73;5.20;;;;;;;4.96;79.32;98500.75;6314169;28;20221;-38
2023/02/20 04:01:56;;;;;;;5.03;4.53;;;;;;;4.92;79.26;98509.00;6330969;27;20323;-38
2023/02/20 04:05:06;;;;;;;4.90;4.50;;;;;;;4.74;79.44;98469.03;6309957;27;20599;-39
2023/02/20 04:08:19;;;;;;;5.57;4.97;;;;;;;5.02;79.13;98511.38;6329881;27;20226;-39
2023/02/20 04:11:27;;;;;;;5.57;5.03;;;;;;;4.75;79.34;98461.91;6310002;27;20252;-39
2023/02/20 04:14:31;;;;;;;5.90;5.07;;;;;;;5.04;79.52;98501.44;6312588;28;20229;-39
2023/02/20 04:17:41;;;;;;;6.47;5.87;;;;;;;5.03;79.51;98493.72;6327031;28;20240;-39
2023/02/20 04:20:51;;;;;;;8.20;6.57;;;;;;;4.96;79.85;98483.06;6327490;28;20384;-39
2023/02/20 04:24:20;;;;;;;6.43;5.83;;;;;;;4.83;80.40;98461.81;6311171;28;20229;-37
2023/02/20 04:27:22;;;;;;;6.10;5.40;;;;;;;4.70;81.00;98454.56;6315295;28;20241;-37
2023/02/20 04:30:29;;;;;;;8.90;6.90;;;;;;;4.53;81.26;98424.94;6332491;27;20719;-37
2023/02/20 04:33:31;;;;;;;7.67;5.80;;;;;;;4.98;82.58;98451.22;6328758;27;20283;-37
2023/02/20 04:36:38;;;;;;;6.17;5.37;;;;;;;5.27;81.89;98450.28;6313982;27;20221;-37
2023/02/20 04:39:40;;;;;;;5.63;5.03;;;;;;;5.45;82.07;98429.50;6304116;27;20386;-37
2023/02/20 04:42:43;;;;;;;5.60;4.80;;;;;;;5.64;81.81;98428.84;6312594;27;20241;-38
2023/02/20 04:45:45;;;;;;;6.17;4.40;;;;;;;5.81;80.99;98429.41;6329914;27;20240;-38
2023/02/20 04:48:47;;;;;;;5.00;4.47;;;;;;;6.02;80.65;98448.91;6326273;27;20299;-37
2023/02/20 04:51:49;;;;;;;5.10;4.07;;;;;;;6.11;80.79;98456.50;6312173;28;20267;-37
2023/02/20 04:54:51;;;;;;;4.80;4.00;;;;;;;6.19;81.07;98458.97;6330763;27;20232;-39
2023/02/20 04:57:57;;;;;;;4.70;3.60;;;;;;;6.30;80.76;98464.72;6329757;27;20236;-38
2023/02/20 05:01:02;;;;;;;5.23;3.50;;;;;;;6.36;80.84;98462.13;6309890;28;20223;-39
2023/02/20 05:04:05;;;;;;;3.83;3.07;;;;;;;6.43;80.55;98468.25;6325225;27;20231;-38
2023/02/20 05:07:06;;;;;;;5.40;3.37;;;;;;;6.19;80.89;98418.47;6324448;28;20235;-38
2023/02/20 05:10:15;;;;;;;5.93;3.07;;;;;;;6.42;80.66;98456.03;6327722;27;20285;-38
2023/02/20 05:13:17;;;;;;;5.47;3.40;;;;;;;6.51;80.65;98462.00;6325575;28;20232;-38
2023/02/20 05:16:19;;;;;;;4.07;3.10;;;;;;;6.57;80.34;98465.69;6321527;28;20649;-38
2023/02/20 05:19:21;;;;;;;5.23;3.00;;;;;;;6.58;80.40;98454.91;6327414;27;20233;-38
2023/02/20 05:22:23;;;;;;;3.70;2.63;;;;;;;6.65;80.20;98447.81;6331567;27;20239;-37
2023/02/20 05:25:25;;;;;;;4.57;3.13;;;;;;;6.62;79.97;98440.25;6321830;27;20247;-37
2023/02/20 05:28:26;;;;;;;5.07;3.70;;;;;;;6.68;79.17;98442.09;6331123;27;20259;-38
2023/02/20 05:31:28;;;;;;;5.63;3.27;;;;;;;6.70;79.27;98433.97;6329877;27;20692;-37
2023/02/20 05:34:31;;;;;;;5.83;4.03;;;;;;;6.64;78.33;98446.16;6328476;27;20778;-38
2023/02/20 05:37:33;;;;;;;4.67;3.80;;;;;;;6.84;75.45;98434.81;6328732;27;20583;-37
2023/02/20 05:40:35;;;;;;;3.80;2.83;;;;;;;6.93;75.99;98444.22;6326863;27;20768;-38
2023/02/20 05:43:37;;;;;;;6.83;4.20;;;;;;;6.64;76.60;98389.75;6325841;27;20414;-38
2023/02/20 05:46:40;;;;;;;5.20;3.50;;;;;;;7.02;76.53;98448.31;6328689;27;20232;-37
2023/02/20 05:49:42;;;;;;;4.87;3.73;;;;;;;7.02;77.03;98455.47;6328667;27;20237;-38
2023/02/20 05:52:45;;;;;;;5.67;3.20;;;;;;;7.05;75.45;98463.84;6328332;27;20232;-38
2023/02/20 05:55:47;;;;;;;5.27;3.63;;;;;;;7.12;74.95;98469.97;6324226;27;20225;-38
2023/02/20 05:58:50;;;;;;;5.30;3.53;;;;;;;7.15;73.30;98482.81;6328243;27;20463;-38
2023/02/20 06:01:56;;;;;;;4.37;3.30;;;;;;;7.27;72.88;98469.78;6325329;28;20231;-37
2023/02/20 06:04:59;;;;;;;5.43;3.83;;;;;;;7.28;72.51;98476.72;6327708;28;20235;-38
2023/02/20 06:08:01;;;;;;;5.87;3.53;;;;;;;7.35;72.59;98466.13;6323237;28;20299;-37
2023/02/20 06:11:03;;;;;;;6.60;3.60;;;;;;;7.38;72.30;98473.66;6310380;28;20641;-38
2023/02/20 06:14:06;;;;;;;5.20;3.27;;;;;;;7.21;70.90;98452.03;6328890;27;20591;-37
2023/02/20 06:17:08;;;;;;;4.30;3.50;;;;;;;6.99;71.00;98416.94;6323380;28;20240;-37
2023/02/20 06:20:10;;;;;;;6.40;3.60;;;;;;;7.47;71.17;98467.16;6331081;28;20236;-38
2023/02/20 06:23:12;;;;;;;2.83;2.60;;;;;;;7.46;72.46;98476.16;6329701;28;20240;-38
2023/02/20 06:26:15;;;;;;;4.77;2.90;;;;;;;7.24;71.57;98433.06;6330440;28;20715;-38
2023/02/20 06:29:18;;;;;;;5.80;2.70;;;;;;;7.52;72.08;98482.47;6328890;28;20319;-38
2023/02/20 06:32:20;;;;;;;4.37;2.87;;;;;;;7.36;72.35;98457.97;6322675;28;20315;-38
2023/02/20 06:35:22;;;;;;;3.67;3.07;;;;;;;7.50;72.38;98488.78;6327047;28;20232;-38
2023/02/20 06:38:24;;;;;;;3.80;2.63;;;;;;;7.60;70.86;98477.78;6328909;28;20290;-38
2023/02/20 06:41:26;;;;;;;3.50;2.37;;;;;;;7.67;71.51;98491.84;6326902;28;20229;-38
2023/02/20 06:44:29;;;;;;;4.60;2.50;;;;;;;7.62;69.67;98489.00;6326732;28;20232;-38
2023/02/20 06:47:31;;;;;;;4.83;3.00;;;;;;;7.67;70.35;98494.50;6324634;28;20229;-38
2023/02/20 06:50:33;;;;;;;5.43;2.93;;;;;;;7.54;69.95;98494.53;6327349;28;20232;-38
2023/02/20 06:53:37;;;;;;;3.20;2.23;;;;;;;7.72;70.05;98499.22;6331440;27;20236;-38
2023/02/20 06:56:39;;;;;;;3.67;2.50;;;;;;;7.73;71.09;98511.44;6332009;28;20251;-38
2023/02/20 06:59:46;;;;;;;6.60;3.10;;;;;;;7.74;67.88;98507.78;6330843;28;20282;-38
2023/02/20 07:02:48;;;;;;;4.47;2.67;;;;;;;7.80;67.21;98524.72;6313608;28;20225;-38
2023/02/20 07:05:50;;;;;;;3.30;2.50;;;;;;;7.83;67.98;98519.84;6331687;27;20237;-38
2023/02/20 07:08:52;;;;;;;6.20;3.00;;;;;;;7.96;67.48;98495.13;6334788;27;20246;-38
2023/02/20 07:11:54;;;;;;;5.60;2.90;;;;;;;7.97;67.79;98507.38;6334270;27;20232;-38
2023/02/20 07:14:56;;;;;;;4.20;2.50;;;;;;;7.94;67.37;98490.03;6325511;27;20234;-38
2023/02/20 07:17:58;;;;;;;3.37;2.40;;;;;;;8.19;68.10;98506.16;6334358;27;20232;-38
2023/02/20 07:21:00;;;;;;;3.70;2.30;;;;;;;8.02;66.66;98436.75;6332877;27;20310;-38
2023/02/20 07:24:03;;;;;;;3.47;2.80;;;;;;;8.47;65.79;98468.75;6331256;27;20354;-38
2023/02/20 07:27:05;;;;;;;4.80;3.00;;;;;;;8.57;65.29;98464.81;6327501;28;20241;-38
2023/02/20 07:30:08;;;;;;;3.00;2.53;;;;;;;8.58;65.31;98458.53;6329559;27;20525;-38
2023/02/20 07:33:10;;;;;;;2.30;2.07;;;;;;;8.58;66.37;98466.47;6329326;28;20216;-38
2023/02/20 07:36:14;;;;;;;3.23;2.40;;;;;;;8.46;66.99;98466.28;6329494;28;20232;-38
2023/02/20 07:39:16;;;;;;;3.93;2.77;;;;;;;8.36;67.13;98445.50;6330203;28;20225;-38
2023/02/20 07:42:18;;;;;;;2.37;2.10;;;;;;;8.45;67.03;98454.88;6330493;28;20205;-37
2023/02/20 07:45:25;;;;;;;3.60;2.60;;;;;;;8.53;65.38;98488.34;6311737;28;20232;-38
2023/02/20 07:48:27;;;;;;;2.63;1.93;;;;;;;8.49;63.91;98464.06;6329934;28;20255;-38
2023/02/20 07:51:30;;;;;;;3.23;2.57;;;;;;;8.60;63.93;98461.75;6326791;28;20236;-38
2023/02/20 07:54:32;;;;;;;2.83;2.23;;;;;;;8.71;64.73;98461.09;6329887;28;20217;-38
2023/02/20 07:57:35;;;;;;;2.83;2.27;;;;;;;8.91;63.29;98448.53;6331036;28;20224;-38
2023/02/20 08:00:37;;;;;;;3.17;1.90;;;;;;;8.69;62.49;98420.66;6330435;28;20595;-38
2023/02/20 08:03:40;;;;;;;5.33;2.20;;;;;;;8.87;61.84;98458.00;6332731;28;20224;-38
2023/02/20 08:06:42;;;;;;;4.07;2.13;;;;;;;8.92;61.52;98422.81;6329938;28;20224;-38
2023/02/20 08:09:46;;;;;;;2.23;2.00;;;;;;;9.12;62.00;98443.97;6329799;28;20673;-38
2023/02/20 08:12:48;;;;;;;5.10;2.33;;;;;;;9.13;61.62;98456.22;6329583;28;20228;-38
2023/02/20 08:15:50;;;;;;;3.73;1.97;;;;;;;9.36;62.29;98475.09;6330615;28;20736;-38
2023/02/20 08:18:52;;;;;;;3.13;1.67;;;;;;;9.53;62.21;98462.09;6329555;28;20229;-38
2023/02/20 08:21:55;;;;;;;1.67;1.57;;;;;;;9.54;62.07;98429.94;6329129;28;20238;-38
2023/02/20 08:24:56;;;;;;;3.43;2.37;;;;;;;9.60;58.86;98448.75;6329014;28;20587;-38
2023/02/20 08:27:58;;;;;;;3.33;2.10;;;;;;;9.50;60.80;98417.31;6312062;28;20238;-38
2023/02/20 08:31:00;;;;;;;3.63;2.23;;;;;;;10.04;59.83;98461.88;6328461;28;20326;-38
2023/02/20 08:34:02;;;;;;;4.20;2.20;;;;;;;10.02;58.30;98461.28;6311556;27;20696;-38
2023/02/20 08:37:04;;;;;;;4.33;2.20;;;;;;;11.45;54.74;98444.00;6331991;27;20225;-38
2023/02/20 08:40:08;;;;;;;3.33;2.00;;;;;;;12.37;51.91;98417.63;6312645;27;20296;-38
2023/02/20 08:43:10;;;;;;;3.83;1.97;;;;;;;12.12;51.73;98441.13;6329405;27;20684;-38
2023/02/20 08:46:12;;;;;;;3.27;2.07;;;;;;;11.77;52.64;98428.53;6331135;27;20230;-38
2023/02/20 08:49:17;;;;;;;3.60;2.00;;;;;;;11.29;53.36;98420.66;6325720;27;20242;-38
2023/02/20 08:52:19;;;;;;;3.10;2.13;;;;;;;10.86;54.78;98424.31;6326929;27;20236;-38
2023/02/20 08:55:21;;;;;;;3.30;1.93;;;;;;;10.82;56.06;98404.50;6330815;27;20286;-39
2023/02/20 08:58:24;;;;;;;3.83;2.43;;;;;;;10.61;54.01;98410.31;6325698;27;20721;-37
2023/02/20 09:01:26;;;;;;;4.37;2.00;;;;;;;10.63;55.67;98409.03;6329555;27;20228;-38
2023/02/20 09:04:28;;;;;;;3.30;2.00;;;;;;;10.46;55.87;98422.16;6324749;27;20573;-38
2023/02/20 09:07:30;;;;;;;4.53;2.70;;;;;;;9.91;54.23;98298.84;6328987;28;20242;-38
2023/02/20 09:10:33;;;;;;;4.57;2.20;;;;;;;10.72;53.96;98413.03;6325416;27;20316;-38
2023/02/20 09:13:41;;;;;;;3.37;2.20;;;;;;;10.69;54.00;98404.66;6327977;27;20307;-38
2023/02/20 09:16:43;;;;;;;4.63;2.40;;;;;;;10.88;55.33;98403.59;6327236;27;20793;-38
2023/02/20 09:19:45;;;;;;;2.40;1.90;;;;;;;11.24;53.08;98389.34;6310517;28;20765;-38
2023/02/20 09:22:50;;;;;;;3.83;2.20;;;;;;;11.37;54.52;98380.31;6328209;27;20600;-38
2023/02/20 09:25:52;;;;;;;4.27;2.30;;;;;;;11.32;54.10;98396.19;6327632;28;20228;-38
2023/02/20 09:28:54;;;;;;;3.50;2.60;;;;;;;11.30;51.76;98393.75;6331124;27;20228;-37
2023/02/20 09:31:56;;;;;;;3.23;2.10;;;;;;;11.37;52.19;98382.97;6331122;27;20222;-38
2023/02/20 09:34:59;;;;;;;3.73;2.37;;;;;;;11.28;51.19;98395.84;6318390;28;20306;-38
2023/02/20 09:38:01;;;;;;;2.70;1.83;;;;;;;11.41;52.09;98386.00;6324926;28;20642;-37
2023/02/20 09:41:03;;;;;;;2.27;1.80;;;;;;;11.15;51.95;98390.72;6326093;27;20315;-37
2023/02/20 09:44:22;;;;;;;3.27;1.83;;;;;;;11.01;53.21;98386.59;6330217;27;20238;-37
2023/02/20 09:47:46;;;;;;;2.67;2.13;;;;;;;11.02;52.41;98394.38;6327019;27;20332;-37
2023/02/20 09:50:58;;;;;;;3.73;2.33;;;;;;;10.69;51.73;98384.19;6327001;27;20588;-37
2023/02/20 09:54:24;;;;;;;2.70;1.87;;;;;;;10.71;52.70;98376.75;6324675;27;20714;-37
2023/02/20 09:57:29;;;;;;;4.23;2.67;;;;;;;10.70;54.79;98391.13;6308765;27;20281;-37
2023/02/20 10:00:35;;;;;;;4.67;2.43;;;;;;;10.50;53.09;98391.38;6325693;27;20297;-36
2023/02/20 10:04:06;;;;;;;3.83;1.90;;;;;;;10.62;52.16;98366.63;6324639;28;20254;-37
2023/02/20 10:07:40;;;;;;;3.63;2.10;;;;;;;10.77;52.96;98378.50;6307923;28;20235;-37
2023/02/20 10:10:42;;;;;;;3.93;2.43;;;;;;;10.57;53.66;98381.44;6324940;28;20228;-37
2023/02/20 10:14:10;;;;;;;4.10;1.70;;;;;;;10.55;53.67;98369.41;6327235;28;20228;-37
2023/02/20 10:17:34;;;;;;;4.77;2.70;;;;;;;10.59;53.64;98384.72;6322744;28;20238;-37
2023/02/20 10:20:42;;;;;;;3.67;2.00;;;;;;;10.52;52.11;98359.19;6319728;28;20279;-37
2023/02/20 10:23:51;;;;;;;4.53;1.90;;;;;;;10.67;52.45;98364.09;6334314;27;20237;-37
2023/02/20 10:27:39;;;;;;;4.67;1.83;;;;;;;10.89;52.47;98335.13;6335262;27;20214;-37
2023/02/20 10:30:53;;;;;;;2.57;1.63;;;;;;;11.09;50.97;98341.78;6331778;27;20310;-38
2023/02/20 10:34:06;;;;;;;2.00;1.70;;;;;;;11.03;53.08;98332.03;6327299;27;20237;-38
2023/02/20 10:37:16;;;;;;;4.17;1.70;;;;;;;11.15;50.91;98342.72;6328560;28;20240;-38
2023/02/20 10:40:29;;;;;;;2.90;1.47;;;;;;;10.84;51.10;98274.50;6332365;28;20234;-37
2023/02/20 10:43:42;;;;;;;2.47;1.50;;;;;;;11.10;52.91;98311.38;6334608;27;20597;-37
2023/02/20 10:46:51;;;;;;;2.70;1.47;;;;;;;11.65;50.79;98296.91;6330839;27;20680;-38
2023/02/20 10:50:14;;;;;;;2.73;1.17;;;;;;;11.66;48.56;98269.19;6332164;27;20605;-37
2023/02/20 10:53:47;;;;;;;2.80;1.70;;;;;;;11.60;47.65;98273.59;6327187;28;20237;-37
2023/02/20 10:56:59;;;;;;;2.60;1.60;;;;;;;11.85;47.57;98283.22;6330951;27;20687;-38
2023/02/20 11:00:08;;;;;;;3.87;1.60;;;;;;;12.36;47.93;98274.41;6327992;27;20315;-37
2023/02/20 11:03:36;;;;;;;3.80;1.80;;;;;;;12.76;45.98;98264.66;6327716;27;20216;-37
2023/02/20 11:06:56;;;;;;;2.97;1.50;;;;;;;12.94;44.03;98269.78;6330848;27;20635;-38
2023/02/20 11:09:59;;;;;;;2.23;1.40;;;;;;;12.99;44.97;98261.84;6330919;27;20564;-37
2023/02/20 11:13:04;;;;;;;3.20;1.43;;;;;;;13.26;44.78;98254.00;6328462;27;20255;-37
2023/02/20 11:16:21;;;;;;;2.83;1.60;;;;;;;13.43;43.50;98288.78;6333327;27;20249;-37
2023/02/20 11:19:37;;;;;;;3.93;1.63;;;;;;;12.89;43.96;98267.81;6334164;27;20221;-37
2023/02/20 11:22:48;;;;;;;2.87;1.47;;;;;;;12.81;43.90;98243.38;6334164;27;20608;-37
2023/02/20 11:25:50;;;;;;;3.27;1.50;;;;;;;12.84;44.13;98237.53;6329578;27;20271;-37
2023/02/20 11:29:04;;;;;;;2.67;1.43;;;;;;;12.51;44.17;98236.44;6331633;27;20248;-37
2023/02/20 11:32:23;;;;;;;2.70;1.40;;;;;;;12.29;44.38;98193.56;6330328;27;20221;-38
2023/02/20 11:35:31;;;;;;;2.07;1.20;;;;;;;13.02;44.88;98226.59;6327972;28;20320;-37
2023/02/20 11:38:35;;;;;;;2.37;1.40;;;;;;;13.10;43.28;98242.25;6330776;27;20591;-38
2023/02/20 11:41:38;;;;;;;2.37;1.50;;;;;;;12.90;44.97;98248.06;6334010;27;20256;-38
2023/02/20 11:44:41;;;;;;;2.40;1.43;;;;;;;12.27;42.98;98195.69;6329127;27;20272;-37
2023/02/20 11:47:43;;;;;;;2.27;1.30;;;;;;;12.81;44.14;98224.66;6334246;27;20589;-37
2023/02/20 11:50:50;;;;;;;2.60;1.40;;;;;;;13.03;43.87;98246.13;6337005;27;20265;-37
2023/02/20 11:54:07;;;;;;;2.60;1.07;;;;;;;13.33;42.84;98219.84;6330258;28;20229;-38
2023/02/20 11:57:17;;;;;;;3.13;1.27;;;;;;;13.23;42.55;98218.91;6333555;27;20701;-38
2023/02/20 12:00:25;;;;;;;2.90;1.43;;;;;;;12.95;42.65;98188.50;6328003;27;20222;-38
2023/02/20 12:03:31;;;;;;;2.07;1.23;;;;;;;13.24;42.42;98220.50;6323201;27;20228;-38
2023/02/20 12:06:35;;;;;;;2.73;1.40;;;;;;;13.16;41.42;98268.00;6329712;28;20221;-38
2023/02/20 12:09:37;;;;;;;1.57;1.20;;;;;;;13.19;41.95;98197.13;6330960;27;20236;-38
2023/02/20 12:12:39;;;;;;;2.80;1.50;;;;;;;13.33;41.73;98201.13;6329118;27;20633;-38
2023/02/20 12:15:46;;;;;;;2.67;1.17;;;;;;;12.89;42.91;98168.88;6328385;28;20224;-38
2023/02/20 12:19:10;;;;;;;2.70;1.13;;;;;;;13.10;41.20;98194.09;6328699;28;20232;-38
2023/02/20 12:22:27;;;;;;;4.43;1.23;;;;;;;13.13;41.90;98179.41;6328092;28;20325;-38
2023/02/20 12:25:40;;;;;;;4.10;1.57;;;;;;;13.34;42.35;98183.19;6326520;28;20230;-37
2023/02/20 12:29:14;;;;;;;2.43;1.37;;;;;;;12.93;41.01;98166.53;6330811;27;20320;-38
2023/02/20 12:32:57;;;;;;;2.00;1.00;;;;;;;12.93;40.37;98165.75;6329536;27;20719;-37
2023/02/20 12:36:29;;;;;;;3.47;1.10;;;;;;;13.13;41.41;98174.88;6318020;27;20815;-38
2023/02/20 12:39:49;;;;;;;2.97;0.90;;;;;;;12.94;41.08;98144.09;6316785;27;20601;-38
2023/02/20 12:43:05;;;;;;;1.83;1.20;;;;;;;13.12;41.07;98151.84;6331883;27;20261;-38
2023/02/20 12:46:33;;;;;;;2.00;1.23;;;;;;;12.81;41.24;98155.16;6326813;27;20604;-38
2023/02/20 12:49:44;;;;;;;2.00;1.17;;;;;;;12.76;41.68;98149.69;6325772;27;20803;-38
2023/02/20 12:53:08;;;;;;;2.40;1.10;;;;;;;12.75;40.83;98132.84;6324899;27;20734;-38
2023/02/20 12:56:16;;;;;;;1.70;1.20;;;;;;;12.58;41.31;98124.03;6306937;28;20217;-38
2023/02/20 12:59:49;;;;;;;2.20;1.10;;;;;;;12.54;42.21;98125.56;6331628;27;20320;-38
2023/02/20 13:02:59;;;;;;;1.47;0.87;;;;;;;12.80;41.63;98121.41;6331285;27;20737;-37
2023/02/20 13:06:02;;;;;;;1.43;0.80;;;;;;;12.80;42.31;98116.06;6332137;27;20701;-38
2023/02/20 13:09:08;;;;;;;3.70;1.10;;;;;;;12.78;40.83;98118.19;6331945;27;20236;-37
2023/02/20 13:12:15;;;;;;;2.70;1.10;;;;;;;12.85;39.50;98094.75;6331425;27;20520;-38
2023/02/20 13:15:37;;;;;;;1.77;1.00;;;;;;;12.90;42.28;98102.84;6325198;28;20616;-38
2023/02/20 13:18:49;;;;;;;1.80;1.10;;;;;;;12.92;41.34;98095.41;6324837;28;20232;-38
2023/02/20 13:21:53;;;;;;;2.03;1.07;;;;;;;13.04;39.63;98087.25;6328092;27;20996;-38
2023/02/20 13:25:30;;;;;;;2.27;0.80;;;;;;;13.11;39.21;98082.56;6310661;28;20229;-38
2023/02/20 13:28:42;;;;;;;2.10;0.90;;;;;;;13.50;38.50;98088.69;6326068;27;20232;-38
2023/02/20 13:32:23;;;;;;;2.60;0.90;;;;;;;13.57;38.19;98077.78;6326984;27;20603;-38
2023/02/20 13:35:32;;;;;;;2.93;1.00;;;;;;;13.70;37.87;98077.38;6319708;28;20358;-38
2023/02/20 13:38:34;;;;;;;2.97;1.10;;;;;;;14.01;37.11;98080.34;6327515;27;20549;-38
2023/02/20 13:41:54;;;;;;;1.40;0.90;;;;;;;14.22;37.01;98062.59;6327509;27;20286;-38
2023/02/20 13:44:58;;;;;;;1.03;0.80;;;;;;;14.10;36.42;98060.09;6322951;27;20233;-38
2023/02/20 13:48:29;;;;;;;4.20;1.20;;;;;;;13.57;37.27;98057.16;6332818;27;20232;-38
2023/02/20 13:51:32;;;;;;;1.97;0.60;;;;;;;13.63;38.09;98061.50;6315642;28;20228;-38
2023/02/20 13:54:34;;;;;;;1.10;0.70;;;;;;;13.49;40.26;98049.56;6328070;27;20226;-38
2023/02/20 13:57:54;;;;;;;2.33;0.80;;;;;;;13.39;39.90;98044.09;6323416;28;20254;-38
2023/02/20 14:00:56;;;;;;;1.73;0.97;;;;;;;13.37;38.85;98040.88;6331536;28;20720;-38
2023/02/20 14:04:00;;;;;;;1.73;0.93;;;;;;;13.39;37.97;98060.97;6331949;27;20216;-38
2023/02/20 14:07:02;;;;;;;1.13;0.70;;;;;;;13.21;39.39;98041.75;6328601;27;20700;-37
2023/02/20 14:10:16;;;;;;;1.73;1.00;;;;;;;13.29;38.21;98046.66;6310885;28;20231;-38
2023/02/20 14:13:23;;;;;;;0.60;0.60;;;;;;;13.05;38.28;98033.53;6328426;28;20231;-38
2023/02/20 14:16:45;;;;;;;1.80;0.63;;;;;;;13.43;38.28;98034.53;6323832;27;20225;-38
2023/02/20 14:19:57;;;;;;;0.53;0.40;;;;;;;13.38;38.12;98027.25;6328086;28;20225;-38
2023/02/20 14:23:28;;;;;;;1.17;0.70;;;;;;;13.36;36.69;98040.09;6330016;28;20328;-38
2023/02/20 14:26:33;;;;;;;1.53;0.70;;;;;;;13.60;36.98;98043.28;6304209;28;20244;-38
2023/02/20 14:29:36;;;;;;;1.53;0.70;;;;;;;13.54;37.56;98036.25;6327184;28;20233;-38
2023/02/20 14:32:46;;;;;;;0.80;0.57;;;;;;;13.67;38.26;98032.38;6322721;28;20591;-38
2023/02/20 14:36:12;;;;;;;0.73;0.50;;;;;;;13.65;36.77;98037.19;6318702;28;20698;-38
2023/02/20 14:39:40;;;;;;;1.17;0.57;;;;;;;13.73;37.14;98026.00;6324660;28;20226;-38
2023/02/20 14:42:44;;;;;;;1.47;0.73;;;;;;;13.56;37.80;98025.31;6322534;28;20272;-38
2023/02/20 14:45:59;;;;;;;1.77;0.80;;;;;;;13.53;37.46;98025.78;6327895;28;20590;-38
2023/02/20 14:49:15;;;;;;;1.03;0.67;;;;;;;13.51;38.37;98019.91;6321037;28;20268;-38
2023/02/20 14:52:26;;;;;;;1.00;0.67;;;;;;;13.41;39.69;98021.41;6321122;28;20234;-38
2023/02/20 14:55:28;;;;;;;0.50;0.50;;;;;;;13.38;39.40;98024.56;6331239;28;20244;-38
2023/02/20 14:58:37;;;;;;;0.77;0.73;;;;;;;13.32;38.98;98033.59;6326061;28;20581;-38
2023/02/20 15:01:40;;;;;;;0.73;0.60;;;;;;;13.25;38.67;98048.22;6302001;28;20382;-38
2023/02/20 15:04:51;;;;;;;2.93;0.70;;;;;;;13.23;38.23;98024.41;6329165;28;20225;-38
2023/02/20 15:08:05;;;;;;;0.90;0.50;;;;;;;12.94;38.48;97980.16;6321662;28;20856;-38